Etusivu
METAR-TAF:

METAR-TAF

Lentoasemat :

Landvetterin lentoasema

Göteborg-Landvetter, Ruotsi

Leveyspiiri: 57-40N, Pituuspiiri: 012-18E, korkeus merenpinnasta: 169 m

Tämänhetkinen sää

Tämä raportti tehtiin 22 minuuttia sitten, kello 19.50 UTC
Tuuli 10 kn etelästä/lounaasta
Lämpötila 0°C
Kosteus 80%
Ilmanpaine 1041 hPa
Näkyvyys 10 km tai enemmän
Hajonneita pilviä 3200 ft:n korkeudessa

METAR: ESGG 221950Z 20010KT 9999 BKN032 M00/M03 Q1041 R21/19//95

Aika: 21:12 (20:12 UTC)

Sääennuste

Tämä raportti tehtiin 2 tuntia ja 42 minuuttia sitten, kello 17.30 UTC
Ennuste voimassa 22. päivästä klo 18 UTC - 23. päivään klo 18 UTC
Tuuli 9 kn etelästä/lounaasta
Näkyvyys 10 km tai enemmän
ei pilviä alle 1500 m:ssä eikä cumulonimbus-pilviä
Todennäköisyys 40%
23. päivästä klo 13 UTC - 23. päivään klo 18 UTC
Hajonneita pilviä 1000 ft:n korkeudessa

TAF: ESGG 221730Z 2218/2318 20009KT CAVOK PROB40 2313/2318 BKN010

Säähavainnot ja -ennusteet yli 4000 lentoasemalta (METAR- ja TAF-raportit).

Käytössä olevat sääasemat on merkitty karttaan keltaisilla ja punaisilla pisteillä.

Aseta hiiri pisteen päälle nähdäksesi sääaseman nimen.

Klikkaa sitten nähdäksesi säähavainnot ja -ennusteet.

Kartan vaihtaminen: klikkaa mustalla rastilla varustettuja vihreitä pisteitä, niin voit zoomata sisään; viivalla varustettua vihreää pistettä, niin voit zoomata ulos tai vihreitä nuolia, niin pääset viereisille kartoille.


METAR-TAF: